sensor_id;sensor_type;location;lat;lon;timestamp;temperature;humidity
24638;DHT22;12773;50.162;8.548;2023-06-05T00:02:00;18.00;51.30
24638;DHT22;12773;50.162;8.548;2023-06-05T00:04:47;17.90;51.10
24638;DHT22;12773;50.162;8.548;2023-06-05T00:07:36;17.90;52.10
24638;DHT22;12773;50.162;8.548;2023-06-05T00:10:26;17.70;52.20
24638;DHT22;12773;50.162;8.548;2023-06-05T00:13:14;17.70;53.20
24638;DHT22;12773;50.162;8.548;2023-06-05T00:16:02;17.50;52.10
24638;DHT22;12773;50.162;8.548;2023-06-05T00:18:50;17.50;52.10
24638;DHT22;12773;50.162;8.548;2023-06-05T00:21:38;17.40;52.30
24638;DHT22;12773;50.162;8.548;2023-06-05T00:24:26;17.40;52.70
24638;DHT22;12773;50.162;8.548;2023-06-05T00:27:13;17.20;52.90
24638;DHT22;12773;50.162;8.548;2023-06-05T00:30:01;17.20;53.20
24638;DHT22;12773;50.162;8.548;2023-06-05T00:32:49;17.00;53.10
24638;DHT22;12773;50.162;8.548;2023-06-05T00:35:36;17.00;53.80
24638;DHT22;12773;50.162;8.548;2023-06-05T00:38:24;16.90;54.10
24638;DHT22;12773;50.162;8.548;2023-06-05T00:41:11;16.80;54.20
24638;DHT22;12773;50.162;8.548;2023-06-05T00:43:59;16.80;54.90
24638;DHT22;12773;50.162;8.548;2023-06-05T00:46:48;16.60;54.70
24638;DHT22;12773;50.162;8.548;2023-06-05T00:49:37;16.60;54.30
24638;DHT22;12773;50.162;8.548;2023-06-05T00:52:26;16.50;56.40
24638;DHT22;12773;50.162;8.548;2023-06-05T00:55:13;16.50;55.50
24638;DHT22;12773;50.162;8.548;2023-06-05T00:58:01;16.50;55.90
24638;DHT22;12773;50.162;8.548;2023-06-05T01:00:49;16.50;55.70
24638;DHT22;12773;50.162;8.548;2023-06-05T01:03:37;16.30;55.90
24638;DHT22;12773;50.162;8.548;2023-06-05T01:06:29;16.40;55.20
24638;DHT22;12773;50.162;8.548;2023-06-05T01:09:18;16.40;56.30
24638;DHT22;12773;50.162;8.548;2023-06-05T01:12:17;16.40;57.80
24638;DHT22;12773;50.162;8.548;2023-06-05T01:15:06;16.40;55.00
24638;DHT22;12773;50.162;8.548;2023-06-05T01:18:02;16.50;55.70
24638;DHT22;12773;50.162;8.548;2023-06-05T01:20:46;16.50;56.50
24638;DHT22;12773;50.162;8.548;2023-06-05T01:23:33;16.50;54.90
24638;DHT22;12773;50.162;8.548;2023-06-05T01:26:24;16.50;55.60
24638;DHT22;12773;50.162;8.548;2023-06-05T01:29:13;16.50;56.10
24638;DHT22;12773;50.162;8.548;2023-06-05T01:32:09;16.60;55.30
24638;DHT22;12773;50.162;8.548;2023-06-05T01:34:57;16.50;61.00
24638;DHT22;12773;50.162;8.548;2023-06-05T01:37:48;16.30;58.40
24638;DHT22;12773;50.162;8.548;2023-06-05T01:40:36;16.20;57.60
24638;DHT22;12773;50.162;8.548;2023-06-05T01:43:24;16.10;58.10
24638;DHT22;12773;50.162;8.548;2023-06-05T01:46:12;16.10;58.10
24638;DHT22;12773;50.162;8.548;2023-06-05T01:49:00;16.00;60.30
24638;DHT22;12773;50.162;8.548;2023-06-05T01:51:48;15.90;60.10
24638;DHT22;12773;50.162;8.548;2023-06-05T01:54:36;15.90;63.10
24638;DHT22;12773;50.162;8.548;2023-06-05T01:57:28;15.70;61.30
24638;DHT22;12773;50.162;8.548;2023-06-05T02:00:17;15.70;59.60
24638;DHT22;12773;50.162;8.548;2023-06-05T02:03:04;15.70;59.60
24638;DHT22;12773;50.162;8.548;2023-06-05T02:05:51;15.70;63.40
24638;DHT22;12773;50.162;8.548;2023-06-05T02:08:39;15.70;59.10
24638;DHT22;12773;50.162;8.548;2023-06-05T02:11:27;15.70;60.90
24638;DHT22;12773;50.162;8.548;2023-06-05T02:14:14;15.70;59.50
24638;DHT22;12773;50.162;8.548;2023-06-05T02:17:07;15.70;61.00
24638;DHT22;12773;50.162;8.548;2023-06-05T02:19:52;15.70;60.70
24638;DHT22;12773;50.162;8.548;2023-06-05T02:22:40;15.60;59.90
24638;DHT22;12773;50.162;8.548;2023-06-05T02:25:28;15.60;61.50
24638;DHT22;12773;50.162;8.548;2023-06-05T02:28:15;15.70;58.80
24638;DHT22;12773;50.162;8.548;2023-06-05T02:31:03;15.80;59.60
24638;DHT22;12773;50.162;8.548;2023-06-05T02:33:52;15.80;60.10
24638;DHT22;12773;50.162;8.548;2023-06-05T02:36:40;15.80;62.20
24638;DHT22;12773;50.162;8.548;2023-06-05T02:39:29;15.70;60.00
24638;DHT22;12773;50.162;8.548;2023-06-05T02:42:17;15.70;62.80
24638;DHT22;12773;50.162;8.548;2023-06-05T02:45:07;15.60;62.20
24638;DHT22;12773;50.162;8.548;2023-06-05T02:47:54;15.60;61.80
24638;DHT22;12773;50.162;8.548;2023-06-05T02:50:42;15.70;58.60
24638;DHT22;12773;50.162;8.548;2023-06-05T02:53:30;15.80;64.30
24638;DHT22;12773;50.162;8.548;2023-06-05T02:56:17;15.80;62.10
24638;DHT22;12773;50.162;8.548;2023-06-05T02:59:04;15.90;59.50
24638;DHT22;12773;50.162;8.548;2023-06-05T03:01:54;15.90;65.20
24638;DHT22;12773;50.162;8.548;2023-06-05T03:04:42;15.70;66.10
24638;DHT22;12773;50.162;8.548;2023-06-05T03:07:30;15.60;66.30
24638;DHT22;12773;50.162;8.548;2023-06-05T03:10:19;15.50;65.00
24638;DHT22;12773;50.162;8.548;2023-06-05T03:13:07;15.50;64.50
24638;DHT22;12773;50.162;8.548;2023-06-05T03:15:56;15.40;65.30
24638;DHT22;12773;50.162;8.548;2023-06-05T03:18:44;15.40;68.00
24638;DHT22;12773;50.162;8.548;2023-06-05T03:21:32;15.30;66.20
24638;DHT22;12773;50.162;8.548;2023-06-05T03:24:19;15.30;64.70
24638;DHT22;12773;50.162;8.548;2023-06-05T03:27:08;15.20;63.80
24638;DHT22;12773;50.162;8.548;2023-06-05T03:29:56;15.20;68.30
24638;DHT22;12773;50.162;8.548;2023-06-05T03:32:46;15.20;67.60
24638;DHT22;12773;50.162;8.548;2023-06-05T03:35:34;15.10;69.30
24638;DHT22;12773;50.162;8.548;2023-06-05T03:38:22;15.10;68.40
24638;DHT22;12773;50.162;8.548;2023-06-05T03:41:09;15.00;66.10
24638;DHT22;12773;50.162;8.548;2023-06-05T03:43:57;15.00;68.10
24638;DHT22;12773;50.162;8.548;2023-06-05T03:46:45;15.10;66.30
24638;DHT22;12773;50.162;8.548;2023-06-05T03:49:33;15.10;69.00
24638;DHT22;12773;50.162;8.548;2023-06-05T03:52:22;15.10;72.60
24638;DHT22;12773;50.162;8.548;2023-06-05T03:55:10;15.10;71.40
24638;DHT22;12773;50.162;8.548;2023-06-05T03:57:57;15.10;69.50
24638;DHT22;12773;50.162;8.548;2023-06-05T04:00:47;15.10;69.00
24638;DHT22;12773;50.162;8.548;2023-06-05T04:03:38;15.20;68.10
24638;DHT22;12773;50.162;8.548;2023-06-05T04:06:25;15.30;67.30
24638;DHT22;12773;50.162;8.548;2023-06-05T04:09:13;15.40;66.00
24638;DHT22;12773;50.162;8.548;2023-06-05T04:12:01;15.40;66.40
24638;DHT22;12773;50.162;8.548;2023-06-05T04:14:49;15.50;66.90
24638;DHT22;12773;50.162;8.548;2023-06-05T04:17:37;15.60;67.00
24638;DHT22;12773;50.162;8.548;2023-06-05T04:20:24;15.70;64.70
24638;DHT22;12773;50.162;8.548;2023-06-05T04:23:12;15.90;64.50
24638;DHT22;12773;50.162;8.548;2023-06-05T04:25:59;16.10;64.20
24638;DHT22;12773;50.162;8.548;2023-06-05T04:28:47;16.20;69.70
24638;DHT22;12773;50.162;8.548;2023-06-05T04:31:36;16.30;64.50
24638;DHT22;12773;50.162;8.548;2023-06-05T04:34:25;16.40;64.20
24638;DHT22;12773;50.162;8.548;2023-06-05T04:37:12;16.50;65.40
24638;DHT22;12773;50.162;8.548;2023-06-05T04:40:00;16.60;64.30
24638;DHT22;12773;50.162;8.548;2023-06-05T04:42:49;16.70;63.50
24638;DHT22;12773;50.162;8.548;2023-06-05T04:45:39;16.80;66.60
24638;DHT22;12773;50.162;8.548;2023-06-05T04:48:28;16.90;64.40
24638;DHT22;12773;50.162;8.548;2023-06-05T04:51:16;17.00;65.40
24638;DHT22;12773;50.162;8.548;2023-06-05T04:54:04;17.10;64.80
24638;DHT22;12773;50.162;8.548;2023-06-05T04:56:52;17.20;62.60
24638;DHT22;12773;50.162;8.548;2023-06-05T04:59:40;17.30;66.30
24638;DHT22;12773;50.162;8.548;2023-06-05T05:02:27;17.40;65.40
24638;DHT22;12773;50.162;8.548;2023-06-05T05:05:15;17.40;65.70
24638;DHT22;12773;50.162;8.548;2023-06-05T05:08:03;17.60;66.80
24638;DHT22;12773;50.162;8.548;2023-06-05T05:10:51;17.60;73.00
24638;DHT22;12773;50.162;8.548;2023-06-05T05:13:39;17.70;67.00
24638;DHT22;12773;50.162;8.548;2023-06-05T05:16:26;17.80;64.80
24638;DHT22;12773;50.162;8.548;2023-06-05T05:19:14;17.90;69.90
24638;DHT22;12773;50.162;8.548;2023-06-05T05:22:01;18.00;62.10
24638;DHT22;12773;50.162;8.548;2023-06-05T05:24:49;18.20;60.80
24638;DHT22;12773;50.162;8.548;2023-06-05T05:27:37;18.40;59.80
24638;DHT22;12773;50.162;8.548;2023-06-05T05:30:24;18.50;60.20
24638;DHT22;12773;50.162;8.548;2023-06-05T05:33:12;18.60;58.70
24638;DHT22;12773;50.162;8.548;2023-06-05T05:36:01;18.80;59.40
24638;DHT22;12773;50.162;8.548;2023-06-05T05:38:49;18.90;59.40
24638;DHT22;12773;50.162;8.548;2023-06-05T05:41:37;19.00;58.50
24638;DHT22;12773;50.162;8.548;2023-06-05T05:44:24;19.20;59.10
24638;DHT22;12773;50.162;8.548;2023-06-05T05:47:12;19.30;57.50
24638;DHT22;12773;50.162;8.548;2023-06-05T05:50:00;19.50;57.50
24638;DHT22;12773;50.162;8.548;2023-06-05T05:52:48;19.60;57.00
24638;DHT22;12773;50.162;8.548;2023-06-05T05:55:37;19.60;56.80
24638;DHT22;12773;50.162;8.548;2023-06-05T05:58:25;19.70;56.20
24638;DHT22;12773;50.162;8.548;2023-06-05T06:01:12;19.80;56.50
24638;DHT22;12773;50.162;8.548;2023-06-05T06:04:00;19.90;55.30
24638;DHT22;12773;50.162;8.548;2023-06-05T06:06:48;20.00;55.70
24638;DHT22;12773;50.162;8.548;2023-06-05T06:09:37;20.10;56.10
24638;DHT22;12773;50.162;8.548;2023-06-05T06:12:25;20.30;56.20
24638;DHT22;12773;50.162;8.548;2023-06-05T06:15:14;20.30;55.30
24638;DHT22;12773;50.162;8.548;2023-06-05T06:18:01;20.40;54.40
24638;DHT22;12773;50.162;8.548;2023-06-05T06:20:50;20.40;54.50
24638;DHT22;12773;50.162;8.548;2023-06-05T06:23:37;20.30;54.40
24638;DHT22;12773;50.162;8.548;2023-06-05T06:26:25;20.40;55.00
24638;DHT22;12773;50.162;8.548;2023-06-05T06:29:19;20.40;54.90
24638;DHT22;12773;50.162;8.548;2023-06-05T06:32:09;20.40;54.30
24638;DHT22;12773;50.162;8.548;2023-06-05T06:34:57;20.50;54.50
24638;DHT22;12773;50.162;8.548;2023-06-05T06:37:47;20.50;55.10
24638;DHT22;12773;50.162;8.548;2023-06-05T06:40:35;20.60;55.00
24638;DHT22;12773;50.162;8.548;2023-06-05T06:43:23;20.70;55.60
24638;DHT22;12773;50.162;8.548;2023-06-05T06:46:10;20.70;55.10
24638;DHT22;12773;50.162;8.548;2023-06-05T06:48:58;20.80;55.20
24638;DHT22;12773;50.162;8.548;2023-06-05T06:51:46;21.00;54.80
24638;DHT22;12773;50.162;8.548;2023-06-05T06:54:34;21.10;55.10
24638;DHT22;12773;50.162;8.548;2023-06-05T06:57:21;21.10;53.50
24638;DHT22;12773;50.162;8.548;2023-06-05T07:00:09;21.10;54.10
24638;DHT22;12773;50.162;8.548;2023-06-05T07:02:58;21.20;54.20
24638;DHT22;12773;50.162;8.548;2023-06-05T07:05:45;21.20;54.20
24638;DHT22;12773;50.162;8.548;2023-06-05T07:08:33;21.40;54.30
24638;DHT22;12773;50.162;8.548;2023-06-05T07:11:21;21.40;53.40
24638;DHT22;12773;50.162;8.548;2023-06-05T07:14:08;21.30;53.00
24638;DHT22;12773;50.162;8.548;2023-06-05T07:16:56;21.20;53.90
24638;DHT22;12773;50.162;8.548;2023-06-05T07:19:46;21.30;52.90
24638;DHT22;12773;50.162;8.548;2023-06-05T07:22:34;21.30;53.00
24638;DHT22;12773;50.162;8.548;2023-06-05T07:25:22;21.40;53.30
24638;DHT22;12773;50.162;8.548;2023-06-05T07:28:11;21.30;52.90
24638;DHT22;12773;50.162;8.548;2023-06-05T07:30:59;21.40;53.20
24638;DHT22;12773;50.162;8.548;2023-06-05T07:33:48;21.60;53.80
24638;DHT22;12773;50.162;8.548;2023-06-05T07:36:35;21.60;52.30
24638;DHT22;12773;50.162;8.548;2023-06-05T07:39:23;21.70;52.40
24638;DHT22;12773;50.162;8.548;2023-06-05T07:42:11;21.70;52.70
24638;DHT22;12773;50.162;8.548;2023-06-05T07:45:00;21.70;52.30
24638;DHT22;12773;50.162;8.548;2023-06-05T07:47:47;21.80;52.80
24638;DHT22;12773;50.162;8.548;2023-06-05T07:50:35;21.90;52.40
24638;DHT22;12773;50.162;8.548;2023-06-05T07:53:23;22.00;52.40
24638;DHT22;12773;50.162;8.548;2023-06-05T07:56:11;22.30;53.20
24638;DHT22;12773;50.162;8.548;2023-06-05T07:59:00;22.40;52.10
24638;DHT22;12773;50.162;8.548;2023-06-05T08:01:49;22.50;51.50
24638;DHT22;12773;50.162;8.548;2023-06-05T08:04:36;22.50;51.30
24638;DHT22;12773;50.162;8.548;2023-06-05T08:07:25;22.60;51.60
24638;DHT22;12773;50.162;8.548;2023-06-05T08:10:13;22.60;51.40
24638;DHT22;12773;50.162;8.548;2023-06-05T08:13:00;22.70;51.50
24638;DHT22;12773;50.162;8.548;2023-06-05T08:15:48;22.80;51.20
24638;DHT22;12773;50.162;8.548;2023-06-05T08:18:36;22.80;50.50
24638;DHT22;12773;50.162;8.548;2023-06-05T08:21:24;22.70;50.50
24638;DHT22;12773;50.162;8.548;2023-06-05T08:24:11;22.90;51.70
24638;DHT22;12773;50.162;8.548;2023-06-05T08:26:59;22.70;50.90
24638;DHT22;12773;50.162;8.548;2023-06-05T08:29:47;22.80;52.90
24638;DHT22;12773;50.162;8.548;2023-06-05T08:32:34;22.90;50.50
24638;DHT22;12773;50.162;8.548;2023-06-05T08:35:22;22.90;51.10
24638;DHT22;12773;50.162;8.548;2023-06-05T08:38:10;22.80;52.00
24638;DHT22;12773;50.162;8.548;2023-06-05T08:41:05;23.00;52.20
24638;DHT22;12773;50.162;8.548;2023-06-05T08:43:55;23.20;54.40
24638;DHT22;12773;50.162;8.548;2023-06-05T08:46:42;23.30;51.80
24638;DHT22;12773;50.162;8.548;2023-06-05T08:49:31;23.40;52.60
24638;DHT22;12773;50.162;8.548;2023-06-05T08:52:22;23.50;51.80
24638;DHT22;12773;50.162;8.548;2023-06-05T08:55:10;23.40;51.30
24638;DHT22;12773;50.162;8.548;2023-06-05T08:57:58;23.50;53.50
24638;DHT22;12773;50.162;8.548;2023-06-05T09:00:47;23.70;52.90
24638;DHT22;12773;50.162;8.548;2023-06-05T09:03:35;23.90;53.50
24638;DHT22;12773;50.162;8.548;2023-06-05T09:06:23;24.10;52.80
24638;DHT22;12773;50.162;8.548;2023-06-05T09:09:10;24.20;50.10
24638;DHT22;12773;50.162;8.548;2023-06-05T09:12:03;23.90;50.90
24638;DHT22;12773;50.162;8.548;2023-06-05T09:14:51;24.00;51.90
24638;DHT22;12773;50.162;8.548;2023-06-05T09:17:40;23.90;51.40
24638;DHT22;12773;50.162;8.548;2023-06-05T09:20:28;24.10;51.50
24638;DHT22;12773;50.162;8.548;2023-06-05T09:23:28;24.30;50.80
24638;DHT22;12773;50.162;8.548;2023-06-05T09:26:16;24.40;50.60
24638;DHT22;12773;50.162;8.548;2023-06-05T09:29:05;24.60;51.20
24638;DHT22;12773;50.162;8.548;2023-06-05T09:31:55;24.60;52.00
24638;DHT22;12773;50.162;8.548;2023-06-05T09:34:43;24.90;51.90
24638;DHT22;12773;50.162;8.548;2023-06-05T09:37:36;25.10;51.40
24638;DHT22;12773;50.162;8.548;2023-06-05T09:40:38;25.10;50.80
24638;DHT22;12773;50.162;8.548;2023-06-05T09:43:28;25.20;51.80
24638;DHT22;12773;50.162;8.548;2023-06-05T09:46:16;25.30;51.10
24638;DHT22;12773;50.162;8.548;2023-06-05T09:49:04;25.30;51.00
24638;DHT22;12773;50.162;8.548;2023-06-05T09:51:51;25.20;50.80
24638;DHT22;12773;50.162;8.548;2023-06-05T09:54:41;25.30;51.60
24638;DHT22;12773;50.162;8.548;2023-06-05T09:57:31;25.50;51.80
24638;DHT22;12773;50.162;8.548;2023-06-05T10:00:19;25.90;51.50
24638;DHT22;12773;50.162;8.548;2023-06-05T10:03:16;26.00;50.90
24638;DHT22;12773;50.162;8.548;2023-06-05T10:06:05;25.90;51.30
24638;DHT22;12773;50.162;8.548;2023-06-05T10:08:55;26.10;50.70
24638;DHT22;12773;50.162;8.548;2023-06-05T10:11:43;25.70;51.10
24638;DHT22;12773;50.162;8.548;2023-06-05T10:14:33;25.90;51.80
24638;DHT22;12773;50.162;8.548;2023-06-05T10:17:22;26.30;51.30
24638;DHT22;12773;50.162;8.548;2023-06-05T10:20:10;26.70;52.30
24638;DHT22;12773;50.162;8.548;2023-06-05T10:22:58;27.00;50.20
24638;DHT22;12773;50.162;8.548;2023-06-05T10:25:47;27.30;49.50
24638;DHT22;12773;50.162;8.548;2023-06-05T10:28:57;27.70;50.90
24638;DHT22;12773;50.162;8.548;2023-06-05T10:32:03;27.40;49.40
24638;DHT22;12773;50.162;8.548;2023-06-05T10:34:48;27.20;47.00
24638;DHT22;12773;50.162;8.548;2023-06-05T10:40:57;27.20;48.50
24638;DHT22;12773;50.162;8.548;2023-06-05T10:43:48;27.30;47.00
24638;DHT22;12773;50.162;8.548;2023-06-05T10:46:39;27.20;46.50
24638;DHT22;12773;50.162;8.548;2023-06-05T10:49:26;27.10;47.60
24638;DHT22;12773;50.162;8.548;2023-06-05T10:52:34;27.50;45.90
24638;DHT22;12773;50.162;8.548;2023-06-05T10:55:17;27.60;45.20
24638;DHT22;12773;50.162;8.548;2023-06-05T11:01:16;27.70;44.70
24638;DHT22;12773;50.162;8.548;2023-06-05T11:04:05;27.60;44.10
24638;DHT22;12773;50.162;8.548;2023-06-05T11:07:18;27.80;43.80
24638;DHT22;12773;50.162;8.548;2023-06-05T11:10:18;28.30;45.50
24638;DHT22;12773;50.162;8.548;2023-06-05T11:13:10;28.80;43.40
24638;DHT22;12773;50.162;8.548;2023-06-05T11:15:58;29.10;44.40
24638;DHT22;12773;50.162;8.548;2023-06-05T11:18:45;29.20;42.70
24638;DHT22;12773;50.162;8.548;2023-06-05T11:24:43;29.70;41.60
24638;DHT22;12773;50.162;8.548;2023-06-05T11:27:50;29.80;41.30
24638;DHT22;12773;50.162;8.548;2023-06-05T11:30:43;29.80;43.30
24638;DHT22;12773;50.162;8.548;2023-06-05T11:33:33;30.10;41.60
24638;DHT22;12773;50.162;8.548;2023-06-05T11:36:22;30.20;39.40
24638;DHT22;12773;50.162;8.548;2023-06-05T11:39:11;29.80;39.70
24638;DHT22;12773;50.162;8.548;2023-06-05T11:41:59;29.70;39.70
24638;DHT22;12773;50.162;8.548;2023-06-05T11:44:47;29.40;40.50
24638;DHT22;12773;50.162;8.548;2023-06-05T11:47:34;29.30;38.30
24638;DHT22;12773;50.162;8.548;2023-06-05T11:50:22;28.80;38.10
24638;DHT22;12773;50.162;8.548;2023-06-05T11:53:11;28.80;39.70
24638;DHT22;12773;50.162;8.548;2023-06-05T11:55:59;29.50;41.20
24638;DHT22;12773;50.162;8.548;2023-06-05T11:58:51;29.60;40.10
24638;DHT22;12773;50.162;8.548;2023-06-05T12:01:43;29.70;40.20
24638;DHT22;12773;50.162;8.548;2023-06-05T12:04:31;29.70;39.60
24638;DHT22;12773;50.162;8.548;2023-06-05T12:07:31;29.60;40.20
24638;DHT22;12773;50.162;8.548;2023-06-05T12:10:32;29.80;42.30
24638;DHT22;12773;50.162;8.548;2023-06-05T12:13:12;29.70;40.40
24638;DHT22;12773;50.162;8.548;2023-06-05T12:16:00;29.80;41.40
24638;DHT22;12773;50.162;8.548;2023-06-05T12:18:48;30.10;43.10
24638;DHT22;12773;50.162;8.548;2023-06-05T12:21:37;30.00;40.90
24638;DHT22;12773;50.162;8.548;2023-06-05T12:24:26;30.00;41.50
24638;DHT22;12773;50.162;8.548;2023-06-05T12:27:13;29.70;41.20
24638;DHT22;12773;50.162;8.548;2023-06-05T12:30:02;29.50;41.10
24638;DHT22;12773;50.162;8.548;2023-06-05T12:32:49;29.20;41.60
24638;DHT22;12773;50.162;8.548;2023-06-05T12:35:37;29.50;41.30
24638;DHT22;12773;50.162;8.548;2023-06-05T12:38:25;30.10;40.60
24638;DHT22;12773;50.162;8.548;2023-06-05T12:41:13;30.30;39.80
24638;DHT22;12773;50.162;8.548;2023-06-05T12:44:02;29.90;39.90
24638;DHT22;12773;50.162;8.548;2023-06-05T12:46:50;29.70;39.50
24638;DHT22;12773;50.162;8.548;2023-06-05T12:49:38;29.80;40.30
24638;DHT22;12773;50.162;8.548;2023-06-05T12:52:27;29.40;39.30
24638;DHT22;12773;50.162;8.548;2023-06-05T12:55:15;29.40;39.90
24638;DHT22;12773;50.162;8.548;2023-06-05T12:58:03;29.70;40.80
24638;DHT22;12773;50.162;8.548;2023-06-05T13:00:50;29.80;40.80
24638;DHT22;12773;50.162;8.548;2023-06-05T13:03:38;29.80;38.90
24638;DHT22;12773;50.162;8.548;2023-06-05T13:06:26;29.70;38.50
24638;DHT22;12773;50.162;8.548;2023-06-05T13:09:14;30.00;39.50
24638;DHT22;12773;50.162;8.548;2023-06-05T13:12:02;29.80;38.80
24638;DHT22;12773;50.162;8.548;2023-06-05T13:14:50;29.80;41.10
24638;DHT22;12773;50.162;8.548;2023-06-05T13:17:38;30.10;41.30
24638;DHT22;12773;50.162;8.548;2023-06-05T13:20:25;30.60;41.60
24638;DHT22;12773;50.162;8.548;2023-06-05T13:23:13;31.10;40.30
24638;DHT22;12773;50.162;8.548;2023-06-05T13:26:02;30.90;38.40
24638;DHT22;12773;50.162;8.548;2023-06-05T13:28:50;30.60;38.20
24638;DHT22;12773;50.162;8.548;2023-06-05T13:31:38;30.00;38.10
24638;DHT22;12773;50.162;8.548;2023-06-05T13:34:25;30.00;37.80
24638;DHT22;12773;50.162;8.548;2023-06-05T13:37:14;29.80;38.60
24638;DHT22;12773;50.162;8.548;2023-06-05T13:40:02;29.50;38.30
24638;DHT22;12773;50.162;8.548;2023-06-05T13:42:53;29.70;39.90
24638;DHT22;12773;50.162;8.548;2023-06-05T13:45:40;29.80;38.10
24638;DHT22;12773;50.162;8.548;2023-06-05T13:48:29;30.20;40.40
24638;DHT22;12773;50.162;8.548;2023-06-05T13:51:16;30.80;40.10
24638;DHT22;12773;50.162;8.548;2023-06-05T13:54:05;31.30;40.50
24638;DHT22;12773;50.162;8.548;2023-06-05T13:56:53;31.40;37.90
24638;DHT22;12773;50.162;8.548;2023-06-05T13:59:41;31.40;37.50
24638;DHT22;12773;50.162;8.548;2023-06-05T14:02:28;30.80;38.10
24638;DHT22;12773;50.162;8.548;2023-06-05T14:05:16;30.60;39.00
24638;DHT22;12773;50.162;8.548;2023-06-05T14:08:04;30.80;40.10
24638;DHT22;12773;50.162;8.548;2023-06-05T14:10:53;31.20;39.30
24638;DHT22;12773;50.162;8.548;2023-06-05T14:13:41;30.80;38.30
24638;DHT22;12773;50.162;8.548;2023-06-05T14:16:28;30.40;39.70
24638;DHT22;12773;50.162;8.548;2023-06-05T14:19:17;30.40;39.00
24638;DHT22;12773;50.162;8.548;2023-06-05T14:22:04;31.00;41.40
24638;DHT22;12773;50.162;8.548;2023-06-05T14:24:52;31.00;38.50
24638;DHT22;12773;50.162;8.548;2023-06-05T14:27:39;30.90;39.50
24638;DHT22;12773;50.162;8.548;2023-06-05T14:30:27;30.70;38.40
24638;DHT22;12773;50.162;8.548;2023-06-05T14:33:15;30.50;39.30
24638;DHT22;12773;50.162;8.548;2023-06-05T14:36:06;30.30;39.80
24638;DHT22;12773;50.162;8.548;2023-06-05T14:38:54;30.60;40.50
24638;DHT22;12773;50.162;8.548;2023-06-05T14:41:43;31.00;38.80
24638;DHT22;12773;50.162;8.548;2023-06-05T14:44:31;30.70;39.00
24638;DHT22;12773;50.162;8.548;2023-06-05T14:47:18;30.70;38.40
24638;DHT22;12773;50.162;8.548;2023-06-05T14:50:07;30.80;38.90
24638;DHT22;12773;50.162;8.548;2023-06-05T14:52:55;30.90;37.50
24638;DHT22;12773;50.162;8.548;2023-06-05T14:55:42;31.40;40.70
24638;DHT22;12773;50.162;8.548;2023-06-05T14:58:30;31.80;38.30
24638;DHT22;12773;50.162;8.548;2023-06-05T15:01:17;31.90;37.70
24638;DHT22;12773;50.162;8.548;2023-06-05T15:04:05;31.80;38.80
24638;DHT22;12773;50.162;8.548;2023-06-05T15:06:53;31.10;37.70
24638;DHT22;12773;50.162;8.548;2023-06-05T15:09:40;30.80;37.50
24638;DHT22;12773;50.162;8.548;2023-06-05T15:12:28;31.00;37.70
24638;DHT22;12773;50.162;8.548;2023-06-05T15:15:15;30.80;37.50
24638;DHT22;12773;50.162;8.548;2023-06-05T15:18:05;31.20;37.20
24638;DHT22;12773;50.162;8.548;2023-06-05T15:20:54;30.80;36.90
24638;DHT22;12773;50.162;8.548;2023-06-05T15:23:41;30.90;37.00
24638;DHT22;12773;50.162;8.548;2023-06-05T15:26:29;31.00;37.80
24638;DHT22;12773;50.162;8.548;2023-06-05T15:29:17;30.60;36.70
24638;DHT22;12773;50.162;8.548;2023-06-05T15:32:05;30.80;39.10
24638;DHT22;12773;50.162;8.548;2023-06-05T15:34:54;31.40;38.90
24638;DHT22;12773;50.162;8.548;2023-06-05T15:37:41;31.80;38.70
24638;DHT22;12773;50.162;8.548;2023-06-05T15:40:29;32.30;37.70
24638;DHT22;12773;50.162;8.548;2023-06-05T15:43:17;32.80;37.80
24638;DHT22;12773;50.162;8.548;2023-06-05T15:46:04;32.30;36.40
24638;DHT22;12773;50.162;8.548;2023-06-05T15:48:52;31.80;37.40
24638;DHT22;12773;50.162;8.548;2023-06-05T15:51:39;31.40;36.80
24638;DHT22;12773;50.162;8.548;2023-06-05T15:54:27;31.40;37.70
24638;DHT22;12773;50.162;8.548;2023-06-05T15:57:18;31.70;36.70
24638;DHT22;12773;50.162;8.548;2023-06-05T16:00:06;31.90;36.60
24638;DHT22;12773;50.162;8.548;2023-06-05T16:02:55;31.60;36.40
24638;DHT22;12773;50.162;8.548;2023-06-05T16:05:43;31.60;37.10
24638;DHT22;12773;50.162;8.548;2023-06-05T16:08:31;31.70;37.10
24638;DHT22;12773;50.162;8.548;2023-06-05T16:11:19;31.80;36.80
24638;DHT22;12773;50.162;8.548;2023-06-05T16:14:07;31.20;36.20
24638;DHT22;12773;50.162;8.548;2023-06-05T16:16:56;30.80;36.80
24638;DHT22;12773;50.162;8.548;2023-06-05T16:19:43;30.70;36.30
24638;DHT22;12773;50.162;8.548;2023-06-05T16:22:31;30.30;36.60
24638;DHT22;12773;50.162;8.548;2023-06-05T16:25:19;30.30;37.10
24638;DHT22;12773;50.162;8.548;2023-06-05T16:28:06;30.40;36.40
24638;DHT22;12773;50.162;8.548;2023-06-05T16:30:54;30.30;36.50
24638;DHT22;12773;50.162;8.548;2023-06-05T16:33:42;30.20;36.40
24638;DHT22;12773;50.162;8.548;2023-06-05T16:36:29;30.50;35.90
24638;DHT22;12773;50.162;8.548;2023-06-05T16:39:17;30.80;36.40
24638;DHT22;12773;50.162;8.548;2023-06-05T16:42:05;30.70;35.60
24638;DHT22;12773;50.162;8.548;2023-06-05T16:44:53;30.50;35.90
24638;DHT22;12773;50.162;8.548;2023-06-05T16:47:41;30.00;36.00
24638;DHT22;12773;50.162;8.548;2023-06-05T16:50:28;29.80;36.20
24638;DHT22;12773;50.162;8.548;2023-06-05T16:53:16;29.50;36.30
24638;DHT22;12773;50.162;8.548;2023-06-05T16:56:03;29.50;36.40
24638;DHT22;12773;50.162;8.548;2023-06-05T16:58:52;29.30;36.60
24638;DHT22;12773;50.162;8.548;2023-06-05T17:01:40;29.20;36.80
24638;DHT22;12773;50.162;8.548;2023-06-05T17:04:28;29.10;36.50
24638;DHT22;12773;50.162;8.548;2023-06-05T17:07:16;29.40;36.10
24638;DHT22;12773;50.162;8.548;2023-06-05T17:10:04;29.40;36.10
24638;DHT22;12773;50.162;8.548;2023-06-05T17:12:52;29.60;36.20
24638;DHT22;12773;50.162;8.548;2023-06-05T17:15:40;29.90;36.40
24638;DHT22;12773;50.162;8.548;2023-06-05T17:18:28;30.10;36.40
24638;DHT22;12773;50.162;8.548;2023-06-05T17:21:16;30.40;36.20
24638;DHT22;12773;50.162;8.548;2023-06-05T17:24:04;30.60;35.90
24638;DHT22;12773;50.162;8.548;2023-06-05T17:26:52;30.70;35.80
24638;DHT22;12773;50.162;8.548;2023-06-05T17:29:39;30.80;36.00
24638;DHT22;12773;50.162;8.548;2023-06-05T17:32:27;30.70;36.60
24638;DHT22;12773;50.162;8.548;2023-06-05T17:35:14;30.70;36.10
24638;DHT22;12773;50.162;8.548;2023-06-05T17:38:02;30.50;36.20
24638;DHT22;12773;50.162;8.548;2023-06-05T17:40:50;30.20;35.90
24638;DHT22;12773;50.162;8.548;2023-06-05T17:43:37;30.00;36.10
24638;DHT22;12773;50.162;8.548;2023-06-05T17:46:25;30.00;36.30
24638;DHT22;12773;50.162;8.548;2023-06-05T17:49:12;29.60;36.80
24638;DHT22;12773;50.162;8.548;2023-06-05T17:51:59;29.60;36.90
24638;DHT22;12773;50.162;8.548;2023-06-05T17:54:47;29.50;37.10